Miller City, Ohio
Current Conditions -  °F | °C
As of 7:53 PM on Saturday 25 Oct 2014 (Local Time) from KDFI Reporting Station
Clear Clear  
Wind Chill: 61°   Ceiling: Unl
Heat Index: 61°   Visibility: 10mi
Dew Point: 32°   Wind: 3mph
Humidity: 34%   Direction: 270°W
Pressure: 29.85"   Gusts: NA
Location:  41.1°N, 84.13°W
Report Text: KDFI 252353Z AUTO 27003KT 10SM CLR 16/00 A2985 RMK AO2 SLP109 T01610000 10211 20161 53006
Loading
Personal Weather Stations






























Interactive Weather Map
Tropical Storm Tracking
New forecast layout! Learn more

10-Day Weather Forecast

Advertisements
Track Severe Weather on mobile